createdAt,value
2024-01-16T00:01:07.849Z,99138.97
2024-01-16T00:05:10.641Z,99135.56
2024-01-16T00:09:12.450Z,99142.56
2024-01-16T00:13:14.487Z,99141.50
2024-01-16T00:17:16.416Z,99136.81
2024-01-16T00:21:18.165Z,99148.00
2024-01-16T00:25:22.854Z,99152.13
2024-01-16T00:29:25.064Z,99151.31
2024-01-16T00:33:28.713Z,99153.03
2024-01-16T00:37:30.500Z,99160.94
2024-01-16T00:41:32.240Z,99167.06
2024-01-16T00:45:36.028Z,99185.03
2024-01-16T00:49:38.696Z,99175.63
2024-01-16T00:53:44.001Z,99174.97
2024-01-16T00:57:45.731Z,99183.75
2024-01-16T01:01:47.498Z,99182.41
2024-01-16T01:05:49.396Z,99190.59
2024-01-16T01:09:51.164Z,99186.22
2024-01-16T01:13:52.952Z,99187.50
2024-01-16T01:17:55.780Z,99198.78
2024-01-16T01:21:57.624Z,99197.03
2024-01-16T01:25:59.421Z,99199.97
2024-01-16T01:30:01.153Z,99198.78
2024-01-16T01:34:02.960Z,99199.47
2024-01-16T01:38:05.483Z,99195.81
2024-01-16T01:42:07.259Z,99208.59
2024-01-16T01:46:15.922Z,99209.09
2024-01-16T01:50:18.494Z,99212.38
2024-01-16T01:54:21.892Z,99214.41
2024-01-16T02:02:33.561Z,99224.00
2024-01-16T02:06:35.958Z,99225.78
2024-01-16T02:10:41.035Z,99236.22
2024-01-16T02:14:43.274Z,99236.97
2024-01-16T02:18:45.045Z,99239.41
2024-01-16T02:22:51.339Z,99244.13
2024-01-16T02:26:53.289Z,99247.22
2024-01-16T02:30:55.196Z,99245.72
2024-01-16T02:34:57.032Z,99245.91
2024-01-16T02:38:59.536Z,99244.09
2024-01-16T02:43:03.162Z,99240.19
2024-01-16T02:47:05.295Z,99247.00
2024-01-16T02:51:07.437Z,99245.00
2024-01-16T02:55:09.585Z,99247.25
2024-01-16T02:59:12.371Z,99239.19
2024-01-16T03:03:14.987Z,99242.53
2024-01-16T03:07:17.460Z,99245.72
2024-01-16T03:11:19.872Z,99255.63
2024-01-16T03:15:22.118Z,99258.69
2024-01-16T03:19:26.241Z,99263.44
2024-01-16T03:23:28.825Z,99262.41
2024-01-16T03:27:30.510Z,99259.19
2024-01-16T03:31:33.976Z,99249.94
2024-01-16T03:35:36.766Z,99246.97
2024-01-16T03:39:38.588Z,99243.03
2024-01-16T03:43:41.569Z,99257.56
2024-01-16T03:47:44.932Z,99248.63
2024-01-16T03:51:47.792Z,99253.28
2024-01-16T03:55:51.781Z,99251.41
2024-01-16T03:59:53.754Z,99255.03
2024-01-16T04:03:55.742Z,99236.72
2024-01-16T04:07:58.391Z,99248.41
2024-01-16T04:12:01.193Z,99250.44
2024-01-16T04:16:02.902Z,99242.13
2024-01-16T04:20:12.090Z,99252.56
2024-01-16T04:24:15.940Z,99254.75
2024-01-16T04:28:17.745Z,99255.81
2024-01-16T04:32:19.833Z,99261.78
2024-01-16T04:36:22.906Z,99257.56
2024-01-16T04:40:26.796Z,99263.19
2024-01-16T04:44:30.076Z,99256.84
2024-01-16T04:48:32.239Z,99251.63
2024-01-16T04:52:33.996Z,99253.91
2024-01-16T04:56:36.905Z,99251.56
2024-01-16T05:00:38.984Z,99248.22
2024-01-16T05:04:50.794Z,99241.59
2024-01-16T05:08:52.603Z,99239.25
2024-01-16T05:12:55.717Z,99239.63
2024-01-16T05:16:58.060Z,99235.44
2024-01-16T05:21:00.804Z,99223.97
2024-01-16T05:25:03.238Z,99220.59
2024-01-16T05:29:05.384Z,99210.66
2024-01-16T05:33:07.576Z,99211.22
2024-01-16T05:37:11.053Z,99196.78
2024-01-16T05:41:13.060Z,99207.41
2024-01-16T05:45:15.055Z,99203.19
2024-01-16T05:49:16.810Z,99196.28
2024-01-16T05:53:18.794Z,99201.47
2024-01-16T05:57:20.599Z,99199.31
2024-01-16T06:01:22.327Z,99197.34
2024-01-16T06:05:26.159Z,99206.22
2024-01-16T06:09:27.987Z,99200.53
2024-01-16T06:13:31.497Z,99201.28
2024-01-16T06:17:33.452Z,99196.25
2024-01-16T06:21:35.252Z,99199.16
2024-01-16T06:25:37.503Z,99201.56
2024-01-16T06:29:39.326Z,99196.53
2024-01-16T06:33:41.267Z,99192.56
2024-01-16T06:37:44.653Z,99192.72
2024-01-16T06:41:46.514Z,99191.88
2024-01-16T06:45:48.558Z,99189.72
2024-01-16T06:49:50.938Z,99185.81
2024-01-16T06:53:52.716Z,99179.03
2024-01-16T06:57:54.455Z,99190.22
2024-01-16T07:01:56.467Z,99184.81
2024-01-16T07:05:58.238Z,99174.19
2024-01-16T07:10:00.234Z,99190.22
2024-01-16T07:14:01.919Z,99189.56
2024-01-16T07:18:04.609Z,99190.59
2024-01-16T07:22:06.366Z,99194.38
2024-01-16T07:26:08.889Z,99190.69
2024-01-16T07:30:11.483Z,99197.66
2024-01-16T07:34:14.005Z,99196.09
2024-01-16T07:38:15.958Z,99203.34
2024-01-16T07:42:17.874Z,99204.53
2024-01-16T07:46:19.672Z,99212.16
2024-01-16T07:50:21.438Z,99209.22
2024-01-16T07:54:23.296Z,99209.50
2024-01-16T07:58:25.696Z,99206.59
2024-01-16T08:02:35.556Z,99213.84
2024-01-16T08:06:38.060Z,99218.31
2024-01-16T08:10:43.600Z,99223.13
2024-01-16T08:14:45.592Z,99222.75
2024-01-16T08:18:47.521Z,99226.16
2024-01-16T08:22:51.549Z,99222.78
2024-01-16T08:26:53.448Z,99226.88
2024-01-16T08:30:55.287Z,99232.16
2024-01-16T08:34:57.043Z,99236.34
2024-01-16T08:39:02.792Z,99236.16
2024-01-16T08:43:04.941Z,99247.69
2024-01-16T08:47:08.498Z,99247.56
2024-01-16T08:51:16.154Z,99244.25
2024-01-16T08:55:19.804Z,99254.78
2024-01-16T08:59:24.226Z,99251.47
2024-01-16T09:03:29.469Z,99263.00
2024-01-16T09:07:31.205Z,99265.84
2024-01-16T09:11:33.701Z,99276.50
2024-01-16T09:15:35.928Z,99264.72
2024-01-16T09:19:43.754Z,99277.09
2024-01-16T09:23:45.565Z,99271.34
2024-01-16T09:27:47.548Z,99261.78
2024-01-16T09:31:49.304Z,99262.63
2024-01-16T09:35:52.224Z,99257.47
2024-01-16T09:39:55.247Z,99265.47
2024-01-16T09:43:57.907Z,99263.81
2024-01-16T09:48:00.802Z,99267.03
2024-01-16T09:52:03.457Z,99273.25
2024-01-16T09:56:13.444Z,99280.28
2024-01-16T10:00:16.850Z,99276.53
2024-01-16T10:04:22.022Z,99275.50
2024-01-16T10:08:26.251Z,99272.88
2024-01-16T10:12:29.408Z,99271.69
2024-01-16T10:17:07.380Z,99273.22
2024-01-16T10:21:23.473Z,99278.47
2024-01-16T10:25:28.708Z,99272.44
2024-01-16T10:29:43.759Z,99263.84
2024-01-16T10:33:52.271Z,99260.13
2024-01-16T10:37:55.115Z,99249.44
2024-01-16T10:42:00.318Z,99243.81
2024-01-16T10:46:09.717Z,99250.25
2024-01-16T10:50:11.707Z,99250.91
2024-01-16T10:54:17.339Z,99245.66
2024-01-16T10:58:25.236Z,99236.91
2024-01-16T11:02:39.809Z,99231.25
2024-01-16T11:06:43.826Z,99227.06
2024-01-16T11:10:46.355Z,99227.06
2024-01-16T11:14:52.694Z,99231.44
2024-01-16T11:19:00.653Z,99220.75
2024-01-16T11:23:13.246Z,99209.63
2024-01-16T11:27:25.515Z,99204.34
2024-01-16T11:31:30.427Z,99188.66
2024-01-16T11:35:39.710Z,99181.59
2024-01-16T11:39:42.715Z,99183.84
2024-01-16T11:43:44.913Z,99170.88
2024-01-16T11:47:47.387Z,99164.41
2024-01-16T11:51:49.659Z,99156.06
2024-01-16T11:56:41.430Z,99156.31
2024-01-16T12:00:49.026Z,99149.63
2024-01-16T12:04:56.161Z,99142.44
2024-01-16T12:09:17.046Z,99136.00
2024-01-16T12:13:19.342Z,99121.78
2024-01-16T12:17:21.715Z,99122.69
2024-01-16T12:21:25.468Z,99126.22
2024-01-16T12:25:59.774Z,99123.84
2024-01-16T12:29:53.337Z,99126.09
2024-01-16T12:34:09.770Z,99125.78
2024-01-16T12:38:17.581Z,99117.75
2024-01-16T12:42:21.623Z,99100.66
2024-01-16T12:46:24.186Z,99098.81
2024-01-16T12:50:28.429Z,99093.78
2024-01-16T12:54:30.345Z,99073.88
2024-01-16T12:58:38.571Z,99077.88
2024-01-16T13:02:40.731Z,99072.31
2024-01-16T13:06:45.145Z,99078.72
2024-01-16T13:11:07.308Z,99076.19
2024-01-16T13:15:10.038Z,99070.00
2024-01-16T13:19:12.796Z,99071.53
2024-01-16T13:23:17.585Z,99063.00
2024-01-16T13:27:19.557Z,99070.13
2024-01-16T13:31:21.602Z,99068.50
2024-01-16T13:35:23.585Z,99064.09
2024-01-16T13:39:25.381Z,99070.06
2024-01-16T13:43:27.846Z,99051.06
2024-01-16T13:47:31.052Z,99045.75
2024-01-16T13:51:32.935Z,99043.91
2024-01-16T13:55:35.269Z,99049.34
2024-01-16T13:59:38.494Z,99048.34
2024-01-16T14:03:44.360Z,99033.97
2024-01-16T14:07:47.654Z,99035.75
2024-01-16T14:11:52.292Z,99034.59
2024-01-16T14:15:54.164Z,99032.53
2024-01-16T14:19:56.312Z,99032.53
2024-01-16T14:24:01.584Z,99046.75
2024-01-16T14:28:05.092Z,99051.97
2024-01-16T14:32:07.683Z,99047.00
2024-01-16T14:36:09.731Z,99045.34
2024-01-16T14:40:17.234Z,99052.50
2024-01-16T14:44:19.151Z,99045.41
2024-01-16T14:48:21.404Z,99039.13
2024-01-16T14:52:25.328Z,99038.66
2024-01-16T14:56:27.128Z,99025.06
2024-01-16T15:00:28.975Z,99036.16
2024-01-16T15:04:32.582Z,99030.72
2024-01-16T15:08:35.376Z,99036.81
2024-01-16T15:12:37.617Z,99039.75
2024-01-16T15:16:40.295Z,99043.34
2024-01-16T15:20:45.714Z,99036.69
2024-01-16T15:24:48.767Z,99038.19
2024-01-16T15:28:51.059Z,99039.44
2024-01-16T15:32:52.918Z,99032.34
2024-01-16T15:36:55.262Z,99026.91
2024-01-16T15:40:57.608Z,99022.97
2024-01-16T15:45:00.252Z,99027.53
2024-01-16T15:49:02.298Z,99026.06
2024-01-16T15:53:06.162Z,99033.13
2024-01-16T15:57:07.944Z,99032.66
2024-01-16T16:01:12.191Z,99032.41
2024-01-16T16:05:14.220Z,99025.50
2024-01-16T16:09:16.145Z,99023.16
2024-01-16T16:13:19.173Z,99021.03
2024-01-16T16:17:21.097Z,99023.25
2024-01-16T16:21:25.282Z,99014.88
2024-01-16T16:25:27.618Z,99035.22
2024-01-16T16:29:29.683Z,99033.31
2024-01-16T16:33:31.550Z,99034.13
2024-01-16T16:37:35.161Z,99041.56
2024-01-16T16:41:43.665Z,99048.75
2024-01-16T16:45:46.135Z,99051.25
2024-01-16T16:49:51.492Z,99053.03
2024-01-16T16:53:55.652Z,99043.22
2024-01-16T16:57:58.508Z,99035.41
2024-01-16T17:02:03.522Z,99042.25
2024-01-16T17:06:12.341Z,99050.75
2024-01-16T17:10:15.731Z,99048.84
2024-01-16T17:14:17.837Z,99044.00
2024-01-16T17:18:20.348Z,99056.25
2024-01-16T17:22:23.438Z,99046.47
2024-01-16T17:26:26.815Z,99034.78
2024-01-16T17:30:29.560Z,99028.38
2024-01-16T17:34:31.549Z,99018.78
2024-01-16T17:38:33.637Z,99010.03
2024-01-16T17:42:35.474Z,99012.09
2024-01-16T17:46:37.621Z,99002.91
2024-01-16T17:50:56.723Z,98999.72
2024-01-16T17:54:59.102Z,98990.34
2024-01-16T17:59:00.827Z,98988.22
2024-01-16T18:03:04.785Z,98986.53
2024-01-16T18:07:07.259Z,98975.06
2024-01-16T18:11:09.111Z,98989.44
2024-01-16T18:15:14.932Z,98977.59
2024-01-16T18:19:17.304Z,98981.97
2024-01-16T18:23:20.733Z,98968.22
2024-01-16T18:27:23.312Z,98970.06
2024-01-16T18:31:26.103Z,98957.41
2024-01-16T18:35:27.942Z,98954.88
2024-01-16T18:39:30.972Z,98950.69
2024-01-16T18:43:33.270Z,98949.03
2024-01-16T18:47:37.728Z,98940.94
2024-01-16T18:51:39.976Z,98937.41
2024-01-16T18:55:41.686Z,98934.25
2024-01-16T18:59:43.876Z,98931.28
2024-01-16T19:03:46.981Z,98931.28
2024-01-16T19:07:51.210Z,98926.72
2024-01-16T19:11:56.219Z,98927.75
2024-01-16T19:15:58.082Z,98924.56
2024-01-16T19:19:59.911Z,98920.66
2024-01-16T19:24:01.794Z,98913.38
2024-01-16T19:28:03.800Z,98907.91
2024-01-16T19:32:06.846Z,98902.72
2024-01-16T19:36:08.892Z,98900.22
2024-01-16T19:40:14.458Z,98900.41
2024-01-16T19:44:16.787Z,98896.41
2024-01-16T19:48:18.737Z,98882.28
2024-01-16T19:52:20.840Z,98868.97
2024-01-16T19:56:23.057Z,98876.41
2024-01-16T20:00:24.974Z,98859.75
2024-01-16T20:04:27.497Z,98855.41
2024-01-16T20:08:29.190Z,98853.91
2024-01-16T20:12:39.737Z,98846.22
2024-01-16T20:16:42.716Z,98847.44
2024-01-16T20:20:45.297Z,98852.19
2024-01-16T20:24:47.038Z,98841.59
2024-01-16T20:28:50.007Z,98838.44
2024-01-16T20:32:54.051Z,98830.72
2024-01-16T20:36:59.352Z,98834.44
2024-01-16T20:41:01.076Z,98830.25
2024-01-16T20:45:03.050Z,98835.88
2024-01-16T20:49:04.958Z,98826.72
2024-01-16T20:53:07.023Z,98836.69
2024-01-16T20:57:09.087Z,98837.53
2024-01-16T21:01:10.955Z,98832.50
2024-01-16T21:05:12.944Z,98840.81
2024-01-16T21:09:17.284Z,98836.25
2024-01-16T21:13:19.707Z,98832.06
2024-01-16T21:17:21.868Z,98828.72
2024-01-16T21:21:24.313Z,98821.22
2024-01-16T21:25:26.282Z,98803.31
2024-01-16T21:29:28.114Z,98798.31
2024-01-16T21:33:32.884Z,98792.09
2024-01-16T21:37:34.700Z,98777.09
2024-01-16T21:41:36.766Z,98773.78
2024-01-16T21:45:38.620Z,98779.38
2024-01-16T21:49:40.541Z,98767.94
2024-01-16T21:53:42.450Z,98771.66
2024-01-16T21:57:47.168Z,98761.25
2024-01-16T22:01:48.969Z,98756.06
2024-01-16T22:05:50.868Z,98748.34
2024-01-16T22:09:52.951Z,98740.44
2024-01-16T22:13:54.820Z,98740.25
2024-01-16T22:17:59.024Z,98734.47
2024-01-16T22:22:00.880Z,98735.47
2024-01-16T22:26:02.874Z,98737.56
2024-01-16T22:30:09.544Z,98725.72
2024-01-16T22:34:12.023Z,98718.47
2024-01-16T22:38:13.993Z,98714.53
2024-01-16T22:42:15.819Z,98712.69
2024-01-16T22:46:17.912Z,98711.84
2024-01-16T22:50:19.817Z,98701.88
2024-01-16T22:54:22.135Z,98694.63
2024-01-16T22:58:24.121Z,98699.00
2024-01-16T23:02:26.141Z,98694.22
2024-01-16T23:06:31.194Z,98682.03
2024-01-16T23:10:33.085Z,98670.19
2024-01-16T23:14:34.859Z,98656.53
2024-01-16T23:18:38.773Z,98649.69
2024-01-16T23:22:44.833Z,98637.84
2024-01-16T23:26:46.754Z,98638.31
2024-01-16T23:30:48.588Z,98637.53
2024-01-16T23:34:50.499Z,98627.34
2024-01-16T23:38:54.011Z,98622.78
2024-01-16T23:42:57.023Z,98614.28
2024-01-16T23:46:58.839Z,98599.56
2024-01-16T23:51:01.464Z,98592.09
2024-01-16T23:55:03.285Z,98585.88
2024-01-16T23:59:04.988Z,98589.63
